Time;durP1;ratioP1;P1;durP2;ratioP2;P2;SDS_P1;SDS_P2;PMS_P1;PMS_P2;Temp;Humidity;BMP_temperature;BMP_pressure;BME280_temperature;BME280_humidity;BME280_pressure;Samples;Min_cycle;Max_cycle;Signal;HPM_P1;HPM_P2
2022/10/19 00:01:03;;;;;;;6.47;3.60;;;13.20;99.90;;;;;;1952737;72;21063;-78
2022/10/19 00:03:31;;;;;;;5.00;3.15;;;13.20;99.90;;;;;;1961889;72;21062;-78
2022/10/19 00:05:58;;;;;;;6.67;3.33;;;13.10;99.90;;;;;;1954350;72;21064;-78
2022/10/19 00:08:26;;;;;;;6.12;3.67;;;13.20;99.90;;;;;;1944871;72;21132;-78
2022/10/19 00:10:53;;;;;;;7.87;3.20;;;13.10;99.90;;;;;;1953281;72;21051;-77
2022/10/19 00:13:20;;;;;;;8.88;3.45;;;13.20;99.90;;;;;;1970152;72;21166;-78
2022/10/19 00:15:48;;;;;;;8.50;3.72;;;13.10;99.90;;;;;;1954922;72;21125;-78
2022/10/19 00:18:17;;;;;;;5.28;3.22;;;13.00;99.90;;;;;;1963911;72;21071;-78
2022/10/19 00:20:44;;;;;;;4.08;2.80;;;12.90;99.90;;;;;;1971595;72;21240;-77
2022/10/19 00:23:11;;;;;;;10.98;3.45;;;12.90;99.90;;;;;;1971007;73;21467;-77
2022/10/19 00:25:38;;;;;;;8.15;3.42;;;12.90;99.90;;;;;;1966472;72;21154;-78
2022/10/19 00:28:06;;;;;;;10.53;3.20;;;12.80;99.90;;;;;;1964366;72;22804;-78
2022/10/19 00:30:38;;;;;;;9.05;3.15;;;12.80;99.90;;;;;;1962123;72;21062;-78
2022/10/19 00:33:05;;;;;;;4.37;3.10;;;12.80;99.90;;;;;;1959990;72;21119;-78
2022/10/19 00:35:32;;;;;;;4.03;2.77;;;12.80;99.90;;;;;;1960563;72;21183;-78
2022/10/19 00:38:00;;;;;;;4.20;2.70;;;12.70;99.90;;;;;;1974111;72;21471;-78
2022/10/19 00:40:27;;;;;;;7.22;3.10;;;12.70;99.90;;;;;;1974896;72;21128;-78
2022/10/19 00:42:55;;;;;;;5.03;3.05;;;12.70;99.90;;;;;;1968692;72;21130;-77
2022/10/19 00:45:23;;;;;;;5.92;2.98;;;12.80;99.90;;;;;;1953948;72;21297;-77
2022/10/19 00:47:50;;;;;;;5.10;3.10;;;12.80;99.90;;;;;;1967589;72;21129;-78
2022/10/19 00:50:17;;;;;;;7.87;3.65;;;13.00;99.90;;;;;;1971107;72;21433;-78
2022/10/19 00:52:45;;;;;;;8.98;3.55;;;13.00;99.90;;;;;;1974852;72;21071;-78
2022/10/19 00:55:12;;;;;;;8.48;3.30;;;13.10;99.90;;;;;;1951546;72;21434;-78
2022/10/19 00:57:41;;;;;;;4.60;3.40;;;13.20;99.90;;;;;;1931822;72;21027;-78
2022/10/19 01:00:08;;;;;;;8.30;3.83;;;13.30;99.90;;;;;;1959939;72;21049;-78
2022/10/19 01:02:36;;;;;;;8.60;3.70;;;13.30;99.90;;;;;;1966627;72;21032;-77
2022/10/19 01:05:05;;;;;;;7.60;4.33;;;13.30;99.90;;;;;;1969969;73;21055;-77
2022/10/19 01:07:36;;;;;;;11.50;6.42;;;13.30;99.90;;;;;;1966472;72;21093;-78
2022/10/19 01:10:02;;;;;;;;;;;13.30;99.90;;;;;;1937101;72;21050;-77
2022/10/19 01:12:42;;;;;;;9.63;5.72;;;13.40;99.90;;;;;;1960797;72;20159;-78
2022/10/19 01:15:24;;;;;;;19.45;6.30;;;13.40;99.90;;;;;;1966116;72;21106;-78
2022/10/19 01:18:03;;;;;;;17.87;6.90;;;13.40;99.90;;;;;;1956155;72;21125;-77
2022/10/19 01:20:37;;;;;;;16.73;6.53;;;13.40;99.90;;;;;;1969775;72;21043;-77
2022/10/19 01:23:16;;;;;;;14.20;7.08;;;13.30;99.90;;;;;;1967450;72;21513;-77
2022/10/19 01:26:02;;;;;;;15.37;5.93;;;13.30;99.90;;;;;;1970650;72;21144;-77
2022/10/19 01:28:38;;;;;;;12.90;6.20;;;13.40;99.90;;;;;;1959162;72;21112;-77
2022/10/19 01:31:21;;;;;;;23.90;7.12;;;13.40;99.90;;;;;;1968766;72;21132;-77
2022/10/19 01:34:07;;;;;;;16.12;6.45;;;13.30;99.90;;;;;;1972526;72;21060;-79
2022/10/19 01:36:56;;;;;;;15.70;6.35;;;13.30;99.90;;;;;;1959205;72;21431;-77
2022/10/19 01:39:44;;;;;;;13.58;6.45;;;13.20;99.90;;;;;;1970476;72;21154;-77
2022/10/19 01:42:15;;;;;;;16.20;6.75;;;13.20;99.90;;;;;;1965486;72;21113;-76
2022/10/19 01:44:54;;;;;;;19.05;6.03;;;13.20;99.90;;;;;;1970054;72;21136;-77
2022/10/19 01:47:24;;;;;;;18.57;6.00;;;13.30;99.90;;;;;;1963102;72;21132;-78
2022/10/19 01:49:55;;;;;;;14.38;6.55;;;13.40;99.90;;;;;;1949486;72;21054;-77
2022/10/19 01:52:23;;;;;;;23.15;6.75;;;13.50;99.90;;;;;;1943739;72;21189;-77
2022/10/19 01:54:51;;;;;;;21.95;7.72;;;13.60;99.90;;;;;;1949978;72;21658;-77
2022/10/19 01:57:22;;;;;;;18.60;7.15;;;13.40;99.90;;;;;;1946171;72;21071;-77
2022/10/19 01:59:49;;;;;;;15.78;7.47;;;13.40;99.90;;;;;;1960873;72;21496;-77
2022/10/19 02:02:18;;;;;;;18.20;6.80;;;13.50;99.90;;;;;;1961058;72;21031;-78
2022/10/19 02:04:45;;;;;;;30.17;8.45;;;13.50;99.90;;;;;;1965180;72;21117;-77
2022/10/19 02:07:12;;;;;;;52.58;7.72;;;13.50;99.90;;;;;;1959601;72;21512;-78
2022/10/19 02:09:40;;;;;;;52.48;7.95;;;13.40;99.90;;;;;;1963238;72;21145;-78
2022/10/19 02:12:09;;;;;;;22.70;7.28;;;13.40;99.90;;;;;;1966782;72;21424;-77
2022/10/19 02:14:47;;;;;;;25.70;6.70;;;13.40;99.90;;;;;;1968871;72;21032;-77
2022/10/19 02:17:19;;;;;;;16.45;7.08;;;13.50;99.90;;;;;;1972258;72;21451;-77
2022/10/19 02:19:46;;;;;;;54.18;6.97;;;13.50;99.90;;;;;;1974210;72;21123;-77
2022/10/19 02:22:13;;;;;;;30.00;7.20;;;13.50;99.90;;;;;;1967559;72;21455;-76
2022/10/19 02:24:41;;;;;;;27.90;7.78;;;13.40;99.90;;;;;;1954875;72;21213;-77
2022/10/19 02:27:08;;;;;;;27.02;7.30;;;13.40;99.90;;;;;;1951978;72;21674;-77
2022/10/19 02:29:35;;;;;;;28.70;7.60;;;13.40;99.90;;;;;;1970374;72;21187;-77
2022/10/19 02:32:03;;;;;;;36.25;7.83;;;13.40;99.90;;;;;;1960908;72;21125;-77
2022/10/19 02:34:30;;;;;;;32.38;8.63;;;13.40;99.90;;;;;;1948983;72;21626;-78
2022/10/19 02:36:57;;;;;;;34.05;8.15;;;13.40;99.90;;;;;;1962209;72;21054;-78
2022/10/19 02:39:25;;;;;;;28.57;8.03;;;13.40;99.90;;;;;;1967315;72;21136;-77
2022/10/19 02:41:55;;;;;;;17.95;7.58;;;13.40;99.90;;;;;;1968583;72;21183;-77
2022/10/19 02:44:31;;;;;;;29.90;8.50;;;13.40;99.90;;;;;;1975462;72;21067;-76
2022/10/19 02:47:05;;;;;;;35.63;8.38;;;13.50;99.90;;;;;;1972477;72;21063;-78
2022/10/19 02:49:34;;;;;;;23.35;7.95;;;13.40;99.90;;;;;;1968908;72;21247;-77
2022/10/19 02:52:03;;;;;;;20.02;8.53;;;13.40;99.90;;;;;;1957848;72;21472;-76
2022/10/19 02:54:30;;;;;;;34.60;9.05;;;13.30;99.90;;;;;;1948473;72;21117;-77
2022/10/19 02:56:57;;;;;;;37.13;8.98;;;13.30;99.90;;;;;;1952936;72;21023;-77
2022/10/19 02:59:25;;;;;;;27.65;8.48;;;13.30;99.90;;;;;;1974498;72;21071;-77
2022/10/19 03:01:52;;;;;;;33.30;9.40;;;13.30;99.90;;;;;;1963668;72;21179;-78
2022/10/19 03:04:19;;;;;;;22.37;8.68;;;13.40;99.90;;;;;;1945027;72;21383;-77
2022/10/19 03:06:46;;;;;;;19.70;9.08;;;13.50;99.90;;;;;;1957150;72;21202;-77
2022/10/19 03:09:14;;;;;;;18.25;9.18;;;13.60;99.90;;;;;;1958833;72;21111;-76
2022/10/19 03:11:41;;;;;;;19.67;8.65;;;13.60;99.90;;;;;;1972617;72;21125;-77
2022/10/19 03:14:08;;;;;;;27.87;9.28;;;13.70;99.90;;;;;;1966948;72;21055;-77
2022/10/19 03:16:36;;;;;;;20.82;9.33;;;13.70;99.90;;;;;;1971061;72;21176;-77
2022/10/19 03:19:03;;;;;;;26.70;8.90;;;13.70;99.90;;;;;;1973021;72;21125;-76
2022/10/19 03:21:30;;;;;;;21.55;8.50;;;13.60;99.90;;;;;;1965539;72;21036;-77
2022/10/19 03:23:59;;;;;;;21.37;8.55;;;13.60;99.90;;;;;;1947441;72;21230;-77
2022/10/19 03:26:28;;;;;;;17.80;8.03;;;13.60;99.90;;;;;;1938419;73;21074;-77
2022/10/19 03:28:55;;;;;;;36.63;8.38;;;13.70;99.90;;;;;;1970987;73;21561;-77
2022/10/19 03:31:23;;;;;;;15.72;7.78;;;13.60;99.90;;;;;;1963703;72;21068;-77
2022/10/19 03:33:50;;;;;;;16.30;7.75;;;13.60;99.90;;;;;;1963869;72;21062;-76
2022/10/19 03:36:22;;;;;;;16.48;7.92;;;13.50;99.90;;;;;;1953296;72;21545;-77
2022/10/19 03:38:52;;;;;;;20.55;7.97;;;13.50;99.90;;;;;;1954111;72;21512;-78
2022/10/19 03:41:20;;;;;;;36.73;8.90;;;13.60;99.90;;;;;;1959247;72;21428;-77
2022/10/19 03:43:47;;;;;;;16.23;8.18;;;13.60;99.90;;;;;;1957309;72;21066;-78
2022/10/19 03:46:15;;;;;;;17.77;8.68;;;13.60;99.90;;;;;;1945382;72;21050;-77
2022/10/19 03:48:42;;;;;;;16.12;7.85;;;13.60;99.90;;;;;;1940402;72;21054;-77
2022/10/19 03:51:21;;;;;;;13.78;7.37;;;13.70;99.90;;;;;;1950993;72;21050;-79
2022/10/19 03:53:50;;;;;;;13.20;7.55;;;13.80;99.90;;;;;;1951708;72;21125;-80
2022/10/19 03:56:19;;;;;;;14.15;6.97;;;13.90;99.90;;;;;;1972983;72;21113;-79
2022/10/19 03:58:47;;;;;;;13.45;6.90;;;13.90;99.90;;;;;;1971821;73;21141;-80
2022/10/19 04:01:16;;;;;;;11.15;6.72;;;14.10;99.90;;;;;;1952543;72;21119;-80
2022/10/19 04:03:44;;;;;;;14.40;7.60;;;14.00;99.90;;;;;;1975445;72;21148;-79
2022/10/19 04:06:16;;;;;;;13.65;7.33;;;13.80;99.90;;;;;;1943528;72;21042;-79
2022/10/19 04:08:43;;;;;;;13.13;7.33;;;13.70;99.90;;;;;;1964024;72;21525;-78
2022/10/19 04:11:12;;;;;;;14.70;7.20;;;13.60;99.90;;;;;;1945692;72;21197;-78
2022/10/19 04:13:39;;;;;;;12.47;7.12;;;13.60;99.90;;;;;;1967184;72;21128;-78
2022/10/19 04:16:07;;;;;;;26.00;7.80;;;13.70;99.90;;;;;;1945560;72;21058;-78
2022/10/19 04:18:34;;;;;;;19.85;8.28;;;13.50;99.90;;;;;;1960867;72;21153;-78
2022/10/19 04:21:03;;;;;;;13.72;7.53;;;13.40;99.90;;;;;;1973495;72;21442;-77
2022/10/19 04:23:33;;;;;;;12.40;7.33;;;13.50;99.90;;;;;;1945677;72;21130;-78
2022/10/19 04:26:05;;;;;;;16.63;7.50;;;13.60;99.90;;;;;;1966586;72;21106;-78
2022/10/19 04:28:32;;;;;;;14.47;7.47;;;13.70;99.90;;;;;;1957972;72;21132;-78
2022/10/19 04:31:04;;;;;;;24.67;7.08;;;13.60;99.90;;;;;;1945424;72;21062;-78
2022/10/19 04:33:31;;;;;;;20.43;7.58;;;13.60;99.90;;;;;;1968074;72;21194;-77
2022/10/19 04:36:04;;;;;;;13.28;7.42;;;13.50;99.90;;;;;;1952020;72;21041;-77
2022/10/19 04:38:35;;;;;;;10.35;6.55;;;13.50;99.90;;;;;;1963457;72;21059;-79
2022/10/19 04:41:08;;;;;;;12.13;7.15;;;13.40;99.90;;;;;;1962789;72;21071;-78
2022/10/19 04:43:35;;;;;;;13.80;6.75;;;13.60;99.90;;;;;;1954311;72;21062;-78
2022/10/19 04:46:05;;;;;;;14.23;6.78;;;13.60;99.90;;;;;;1949865;72;21050;-78
2022/10/19 04:48:33;;;;;;;14.00;7.42;;;13.50;99.90;;;;;;1956062;72;21070;-77
2022/10/19 04:51:01;;;;;;;12.00;6.95;;;13.50;99.90;;;;;;1971268;72;21470;-78
2022/10/19 04:53:28;;;;;;;15.20;7.42;;;13.50;99.90;;;;;;1959120;72;21066;-78
2022/10/19 04:55:55;;;;;;;12.63;7.25;;;13.60;99.90;;;;;;1962243;72;21246;-77
2022/10/19 04:58:23;;;;;;;11.65;7.10;;;13.40;99.90;;;;;;1972693;72;21036;-78
2022/10/19 05:00:50;;;;;;;10.30;6.85;;;13.60;99.90;;;;;;1973323;73;21176;-79
2022/10/19 05:03:17;;;;;;;17.50;7.05;;;13.70;99.90;;;;;;1950835;72;21451;-78
2022/10/19 05:05:45;;;;;;;12.80;7.78;;;13.60;99.90;;;;;;1948926;72;21126;-79
2022/10/19 05:08:12;;;;;;;12.53;7.20;;;13.50;99.90;;;;;;1969986;73;21051;-79
2022/10/19 05:10:39;;;;;;;18.42;7.12;;;13.50;99.90;;;;;;1968177;72;21459;-79
2022/10/19 05:13:06;;;;;;;12.40;7.20;;;13.60;99.90;;;;;;1956833;72;21062;-80
2022/10/19 05:15:34;;;;;;;16.40;7.00;;;13.50;99.90;;;;;;1962017;72;21601;-80
2022/10/19 05:18:01;;;;;;;11.22;7.03;;;13.60;99.90;;;;;;1956525;72;21063;-78
2022/10/19 05:20:28;;;;;;;13.45;6.90;;;13.60;99.90;;;;;;1965401;72;21478;-78
2022/10/19 05:22:56;;;;;;;14.03;7.08;;;13.50;99.90;;;;;;1959011;72;21151;-78
2022/10/19 05:25:23;;;;;;;29.45;7.65;;;13.50;99.90;;;;;;1972743;72;21447;-78
2022/10/19 05:27:52;;;;;;;16.02;6.75;;;13.40;99.90;;;;;;1965642;72;21062;-78
2022/10/19 05:30:20;;;;;;;11.33;7.33;;;13.40;99.90;;;;;;1962408;72;21059;-79
2022/10/19 05:32:48;;;;;;;18.90;7.42;;;13.50;99.90;;;;;;1972486;72;21468;-80
2022/10/19 05:35:15;;;;;;;15.20;7.03;;;13.60;99.90;;;;;;1962920;72;21036;-80
2022/10/19 05:37:43;;;;;;;9.80;6.62;;;13.70;99.90;;;;;;1945595;72;21140;-79
2022/10/19 05:40:10;;;;;;;16.55;7.85;;;13.70;99.90;;;;;;1970322;72;21475;-78
2022/10/19 05:42:37;;;;;;;10.25;6.60;;;13.80;99.90;;;;;;1967706;72;21521;-78
2022/10/19 05:45:05;;;;;;;12.88;6.90;;;13.80;99.90;;;;;;1965213;72;21023;-77
2022/10/19 05:47:33;;;;;;;13.72;7.37;;;13.80;99.90;;;;;;1949121;72;21151;-77
2022/10/19 05:50:00;;;;;;;13.05;6.92;;;13.70;99.90;;;;;;1941923;72;21140;-78
2022/10/19 05:52:28;;;;;;;12.18;6.80;;;13.70;99.90;;;;;;1958883;72;21058;-77
2022/10/19 05:54:57;;;;;;;17.57;7.28;;;13.80;99.90;;;;;;1967598;72;21036;-79
2022/10/19 05:57:24;;;;;;;12.43;7.10;;;13.70;99.90;;;;;;1970370;72;21133;-81
2022/10/19 05:59:55;;;;;;;14.33;8.00;;;13.60;99.90;;;;;;1950198;72;21457;-82
2022/10/19 06:02:21;;;;;;;15.48;8.35;;;13.50;99.90;;;;;;1973586;72;21070;-81
2022/10/19 06:04:48;;;;;;;15.75;7.75;;;13.50;99.90;;;;;;1965990;72;21086;-82
2022/10/19 06:07:15;;;;;;;12.33;7.58;;;13.50;99.90;;;;;;1955701;72;21132;-82
2022/10/19 06:09:44;;;;;;;16.80;8.23;;;13.60;99.90;;;;;;1971562;73;21169;-79
2022/10/19 06:12:12;;;;;;;11.15;6.97;;;13.60;99.90;;;;;;1974290;72;21075;-78
2022/10/19 06:14:39;;;;;;;11.03;7.35;;;13.70;99.90;;;;;;1945206;72;21135;-79
2022/10/19 06:17:06;;;;;;;15.60;8.70;;;13.80;99.90;;;;;;1964989;72;21036;-83
2022/10/19 06:19:33;;;;;;;28.12;9.53;;;13.80;99.90;;;;;;1953996;72;21458;-80
2022/10/19 06:22:01;;;;;;;24.95;9.28;;;13.70;99.90;;;;;;1970103;72;21063;-84
2022/10/19 06:24:28;;;;;;;24.18;8.55;;;13.60;99.90;;;;;;1953330;72;21505;-84
2022/10/19 06:26:55;;;;;;;12.25;8.45;;;13.60;99.90;;;;;;1974125;72;21063;-85
2022/10/19 06:29:23;;;;;;;23.27;10.18;;;13.60;99.90;;;;;;1970407;72;21410;-84
2022/10/19 06:31:51;;;;;;;23.40;9.68;;;13.60;99.90;;;;;;1956192;72;21104;-84
2022/10/19 06:34:18;;;;;;;19.92;9.35;;;13.60;99.90;;;;;;1952531;72;21143;-83
2022/10/19 06:36:45;;;;;;;16.40;8.60;;;13.60;99.90;;;;;;1974055;72;21464;-85
2022/10/19 06:39:12;;;;;;;19.30;9.78;;;13.60;99.90;;;;;;1967594;72;21062;-87
2022/10/19 06:41:40;;;;;;;16.32;9.45;;;13.60;99.90;;;;;;1965525;72;21031;-83
2022/10/19 06:44:08;;;;;;;19.87;10.13;;;13.60;99.90;;;;;;1957743;72;21520;-83
2022/10/19 06:46:35;;;;;;;16.75;9.53;;;13.60;99.90;;;;;;1944853;72;21462;-83
2022/10/19 06:49:03;;;;;;;25.10;9.35;;;13.60;99.90;;;;;;1963730;72;21036;-81
2022/10/19 06:51:32;;;;;;;20.90;9.20;;;13.70;99.90;;;;;;1960745;72;21442;-84
2022/10/19 06:53:59;;;;;;;17.95;9.10;;;13.60;99.90;;;;;;1945237;72;21517;-84
2022/10/19 06:56:27;;;;;;;16.48;8.93;;;13.70;99.90;;;;;;1963467;72;21125;-83
2022/10/19 06:58:54;;;;;;;17.98;8.13;;;13.80;99.90;;;;;;1959242;72;21400;-83
2022/10/19 07:01:21;;;;;;;18.32;9.03;;;13.90;99.90;;;;;;1960298;72;21104;-84
2022/10/19 07:03:51;;;;;;;12.93;7.58;;;13.80;99.90;;;;;;1970510;72;21435;-84
2022/10/19 07:06:18;;;;;;;22.27;7.90;;;14.00;99.90;;;;;;1960492;72;21067;-86
2022/10/19 07:08:45;;;;;;;17.12;7.40;;;14.10;99.90;;;;;;1955941;72;21116;-83
2022/10/19 07:11:16;;;;;;;12.40;7.05;;;14.10;99.90;;;;;;1966172;72;21063;-84
2022/10/19 07:13:43;;;;;;;22.90;8.18;;;14.00;99.90;;;;;;1965583;72;21205;-83
2022/10/19 07:16:12;;;;;;;10.48;6.62;;;14.00;99.90;;;;;;1969895;72;21055;-85
2022/10/19 07:18:41;;;;;;;19.02;6.53;;;14.10;99.90;;;;;;1971720;72;21126;-85
2022/10/19 07:21:11;;;;;;;9.70;6.25;;;14.20;99.90;;;;;;1976799;72;21063;-83
2022/10/19 07:23:39;;;;;;;12.55;6.60;;;14.40;99.90;;;;;;1965744;72;21124;-84
2022/10/19 07:26:10;;;;;;;12.13;6.40;;;14.50;99.90;;;;;;1955844;72;21091;-84
2022/10/19 07:28:37;;;;;;;13.08;6.70;;;14.50;99.90;;;;;;1945248;72;21546;-83
2022/10/19 07:31:06;;;;;;;11.40;5.83;;;14.50;99.90;;;;;;1949289;72;21125;-84
2022/10/19 07:33:33;;;;;;;10.13;6.45;;;14.50;99.90;;;;;;1968208;72;21063;-85
2022/10/19 07:36:02;;;;;;;13.53;6.10;;;14.60;99.90;;;;;;1972132;73;21140;-85
2022/10/19 07:38:30;;;;;;;13.58;6.85;;;14.40;99.90;;;;;;1957185;72;21062;-85
2022/10/19 07:41:05;;;;;;;14.87;7.30;;;14.30;99.90;;;;;;1954342;72;21171;-77
2022/10/19 07:43:33;;;;;;;18.65;7.37;;;14.50;99.90;;;;;;1937592;72;21143;-78
2022/10/19 07:46:05;;;;;;;22.27;8.08;;;14.40;99.90;;;;;;1964207;72;21519;-79
2022/10/19 07:48:33;;;;;;;12.25;7.10;;;14.30;99.90;;;;;;1944896;72;21131;-78
2022/10/19 07:51:03;;;;;;;21.70;7.05;;;14.20;99.90;;;;;;1959729;72;21066;-78
2022/10/19 07:53:30;;;;;;;12.75;7.40;;;14.30;99.90;;;;;;1958791;72;21451;-79
2022/10/19 07:56:03;;;;;;;21.85;8.80;;;14.30;99.90;;;;;;1966638;72;21091;-78
2022/10/19 07:58:30;;;;;;;10.15;7.10;;;14.20;99.90;;;;;;1952712;72;21148;-78
2022/10/19 08:01:02;;;;;;;15.08;7.50;;;14.30;99.90;;;;;;1956358;72;21110;-77
2022/10/19 08:03:29;;;;;;;14.28;7.75;;;14.30;99.90;;;;;;1950033;72;21135;-77
2022/10/19 08:06:01;;;;;;;12.25;8.13;;;14.40;99.90;;;;;;1959167;72;21203;-77
2022/10/19 08:08:28;;;;;;;17.15;8.35;;;14.30;99.90;;;;;;1951009;72;21062;-78
2022/10/19 08:10:56;;;;;;;13.43;7.15;;;14.30;99.90;;;;;;1968597;72;21436;-77
2022/10/19 08:13:23;;;;;;;17.10;8.15;;;14.40;99.90;;;;;;1963247;72;21141;-77
2022/10/19 08:15:50;;;;;;;15.30;7.83;;;14.50;99.90;;;;;;1961418;72;21191;-78
2022/10/19 08:18:20;;;;;;;12.10;6.87;;;14.60;99.90;;;;;;1961516;72;21133;-77
2022/10/19 08:20:47;;;;;;;11.45;6.70;;;14.80;99.90;;;;;;1969063;72;21127;-78
2022/10/19 08:23:14;;;;;;;11.65;6.70;;;14.90;99.90;;;;;;1962694;72;21463;-77
2022/10/19 08:25:41;;;;;;;11.33;7.00;;;14.80;99.90;;;;;;1971700;72;21079;-77
2022/10/19 08:28:09;;;;;;;13.70;7.35;;;14.80;99.90;;;;;;1966873;72;21062;-78
2022/10/19 08:30:36;;;;;;;12.63;6.95;;;14.80;99.90;;;;;;1957509;72;21136;-78
2022/10/19 08:33:06;;;;;;;14.85;7.30;;;14.80;99.90;;;;;;1968397;72;21066;-77
2022/10/19 08:35:32;;;;;;;13.13;6.08;;;14.80;99.90;;;;;;1964348;72;21545;-77
2022/10/19 08:38:00;;;;;;;12.00;6.30;;;14.90;99.90;;;;;;1954111;72;21128;-78
2022/10/19 08:40:28;;;;;;;14.40;5.70;;;15.10;99.90;;;;;;1970863;73;21439;-78
2022/10/19 08:42:59;;;;;;;13.72;6.15;;;15.10;99.90;;;;;;1962683;72;21124;-76
2022/10/19 08:45:49;;;;;;;12.18;6.50;;;15.00;99.90;;;;;;1962660;72;21071;-77
2022/10/19 08:48:27;;;;;;;9.53;6.33;;;14.80;99.90;;;;;;1973937;72;21043;-78
2022/10/19 08:50:55;;;;;;;14.40;6.05;;;14.90;99.90;;;;;;1972149;72;21194;-78
2022/10/19 08:53:44;;;;;;;10.53;6.97;;;15.00;99.90;;;;;;1964481;72;21071;-78
2022/10/19 08:56:33;;;;;;;12.45;6.40;;;15.20;99.90;;;;;;1948218;72;21120;-77
2022/10/19 08:59:21;;;;;;;12.47;6.05;;;15.40;99.90;;;;;;1967850;72;21063;-77
2022/10/19 09:01:51;;;;;;;11.65;5.85;;;15.30;99.90;;;;;;1965170;72;21168;-78
2022/10/19 09:04:24;;;;;;;9.55;5.35;;;15.50;99.90;;;;;;1964347;72;21439;-78
2022/10/19 09:06:57;;;;;;;10.43;5.55;;;15.50;99.90;;;;;;1966071;72;21475;-78
2022/10/19 09:09:24;;;;;;;15.72;5.65;;;15.50;99.90;;;;;;1949562;72;21447;-78
2022/10/19 09:11:54;;;;;;;6.58;4.83;;;15.50;99.90;;;;;;1970458;73;21192;-78
2022/10/19 09:14:32;;;;;;;13.58;4.80;;;15.50;99.90;;;;;;1965149;72;21109;-78
2022/10/19 09:17:03;;;;;;;9.65;5.17;;;15.60;99.90;;;;;;1956490;72;21075;-77
2022/10/19 09:19:30;;;;;;;8.95;4.37;;;15.50;99.90;;;;;;1948655;72;21485;-78
2022/10/19 09:22:02;;;;;;;8.63;4.90;;;15.50;99.90;;;;;;1963092;72;21151;-78
2022/10/19 09:24:49;;;;;;;6.47;3.72;;;15.50;99.90;;;;;;1955742;72;21062;-78
2022/10/19 09:27:22;;;;;;;10.10;3.87;;;15.50;99.90;;;;;;1958923;72;21173;-78
2022/10/19 09:29:56;;;;;;;7.15;3.80;;;15.70;99.90;;;;;;1972756;72;21602;-77
2022/10/19 09:32:27;;;;;;;5.03;3.67;;;15.90;99.90;;;;;;1948332;72;21124;-77
2022/10/19 09:35:01;;;;;;;7.35;3.35;;;15.90;99.90;;;;;;1954321;72;21071;-77
2022/10/19 09:37:31;;;;;;;6.30;3.37;;;15.90;99.90;;;;;;1971903;72;21077;-76
2022/10/19 09:39:58;;;;;;;5.35;3.30;;;15.90;99.90;;;;;;1965223;72;21516;-77
2022/10/19 09:42:31;;;;;;;5.42;3.15;;;16.20;99.90;;;;;;1965839;72;21140;-77
2022/10/19 09:45:00;;;;;;;2.98;2.55;;;16.40;99.90;;;;;;1973009;72;21207;-76
2022/10/19 09:47:37;;;;;;;11.45;3.15;;;16.40;99.90;;;;;;1956079;72;21032;-77
2022/10/19 09:50:19;;;;;;;7.83;2.60;;;16.30;99.90;;;;;;1962165;72;21060;-77
2022/10/19 09:52:47;;;;;;;5.28;2.42;;;16.20;99.90;;;;;;1973111;72;21128;-76
2022/10/19 09:55:18;;;;;;;3.60;2.22;;;16.20;99.90;;;;;;1967413;72;21170;-77
2022/10/19 09:57:49;;;;;;;3.12;2.27;;;16.40;99.90;;;;;;1952550;72;21137;-77
2022/10/19 10:00:20;;;;;;;7.90;2.10;;;16.50;99.90;;;;;;1970930;72;21068;-76
2022/10/19 10:02:53;;;;;;;2.58;1.67;;;16.50;99.90;;;;;;1971953;72;21137;-77
2022/10/19 10:05:21;;;;;;;3.47;1.62;;;16.50;99.90;;;;;;1959968;72;21067;-77
2022/10/19 10:07:49;;;;;;;4.17;1.87;;;16.50;99.90;;;;;;1968957;72;21267;-76
2022/10/19 10:10:27;;;;;;;3.30;1.65;;;16.50;99.90;;;;;;1948003;73;21055;-76
2022/10/19 10:12:55;;;;;;;5.83;2.37;;;16.60;99.90;;;;;;1969916;73;21071;-76
2022/10/19 10:15:24;;;;;;;3.95;2.08;;;16.60;99.90;;;;;;1945795;72;21604;-76
2022/10/19 10:17:51;;;;;;;4.40;1.80;;;16.60;99.90;;;;;;1953939;72;21119;-78
2022/10/19 10:20:31;;;;;;;3.00;1.65;;;16.50;99.90;;;;;;1936820;72;21089;-78
2022/10/19 10:23:01;;;;;;;4.53;1.83;;;16.60;99.90;;;;;;1956312;72;21070;-77
2022/10/19 10:25:35;;;;;;;2.00;1.80;;;16.60;99.90;;;;;;1972116;72;21071;-75
2022/10/19 10:28:20;;;;;;;1.98;1.55;;;16.80;99.90;;;;;;1966706;72;21061;-78
2022/10/19 10:30:48;;;;;;;3.00;1.65;;;16.60;99.90;;;;;;1965056;72;21125;-78
2022/10/19 10:33:18;;;;;;;2.15;1.80;;;16.70;99.90;;;;;;1969642;72;21532;-77
2022/10/19 10:35:54;;;;;;;2.47;1.50;;;16.70;99.90;;;;;;1967747;72;21473;-76
2022/10/19 10:38:23;;;;;;;1.50;1.40;;;16.90;99.90;;;;;;1949659;72;21091;-75
2022/10/19 10:40:56;;;;;;;1.52;1.22;;;16.80;99.90;;;;;;1955884;72;21044;-75
2022/10/19 10:43:26;;;;;;;4.67;1.77;;;17.00;99.90;;;;;;1958360;72;21035;-78
2022/10/19 10:45:54;;;;;;;1.57;1.37;;;17.00;99.90;;;;;;1968023;72;21077;-78
2022/10/19 10:48:30;;;;;;;2.00;1.57;;;16.90;99.90;;;;;;1969404;72;21036;-76
2022/10/19 10:50:57;;;;;;;1.92;1.40;;;17.00;99.90;;;;;;1972672;72;21556;-75
2022/10/19 10:53:33;;;;;;;2.08;1.52;;;17.20;99.90;;;;;;1963321;72;21082;-75
2022/10/19 10:56:00;;;;;;;3.87;1.72;;;17.30;99.90;;;;;;1953894;72;21129;-76
2022/10/19 10:58:46;;;;;;;2.95;1.90;;;17.40;99.90;;;;;;1963938;72;21121;-76
2022/10/19 11:01:22;;;;;;;5.45;2.00;;;17.40;99.90;;;;;;1961758;72;21263;-75
2022/10/19 11:04:02;;;;;;;2.77;2.15;;;17.40;99.90;;;;;;1972006;72;21128;-76
2022/10/19 11:06:29;;;;;;;9.73;2.65;;;17.40;99.90;;;;;;1958101;72;21065;-76
2022/10/19 11:09:03;;;;;;;2.45;1.90;;;17.50;99.90;;;;;;1958528;72;21063;-77
2022/10/19 11:11:36;;;;;;;4.08;1.85;;;17.70;99.90;;;;;;1956841;72;21071;-77
2022/10/19 11:14:42;;;;;;;4.53;1.92;;;17.80;99.90;;;;;;1962794;72;21485;-77
2022/10/19 11:17:12;;;;;;;3.45;1.57;;;17.90;99.90;;;;;;1957764;72;21455;-75
2022/10/19 11:19:44;;;;;;;1.90;1.57;;;18.10;99.90;;;;;;1966018;72;21165;-76
2022/10/19 11:22:33;;;;;;;2.15;1.82;;;18.50;99.90;;;;;;1968798;72;21655;-76
2022/10/19 11:25:24;;;;;;;5.55;2.00;;;18.20;99.90;;;;;;1959044;72;21149;-76
2022/10/19 11:27:55;;;;;;;;;;;18.10;99.90;;;;;;1966865;72;21130;-76
2022/10/19 11:30:23;;;;;;;3.10;1.87;;;17.80;99.90;;;;;;1962738;72;20356;-75
2022/10/19 11:32:56;;;;;;;3.55;1.90;;;17.80;99.90;;;;;;1972542;72;21132;-76
2022/10/19 11:35:36;;;;;;;2.90;2.08;;;17.90;99.90;;;;;;1959111;72;21504;-78
2022/10/19 11:38:15;;;;;;;5.43;2.53;;;17.80;99.90;;;;;;1963949;72;21129;-76
2022/10/19 11:40:54;;;;;;;4.35;2.85;;;17.80;99.90;;;;;;1967998;72;21136;-76
2022/10/19 11:43:30;;;;;;;5.03;2.83;;;17.70;99.90;;;;;;1967319;72;21468;-75
2022/10/19 11:46:16;;;;;;;4.83;3.05;;;17.80;99.90;;;;;;1958357;72;21190;-76
2022/10/19 11:48:56;;;;;;;4.97;2.67;;;17.90;99.90;;;;;;1974926;72;21080;-76
2022/10/19 11:51:32;;;;;;;2.00;1.80;;;18.20;99.90;;;;;;1952217;72;21140;-76
2022/10/19 11:54:12;;;;;;;3.00;2.22;;;18.20;99.90;;;;;;1971392;72;21235;-75
2022/10/19 11:56:52;;;;;;;3.17;2.00;;;18.20;99.90;;;;;;1965912;72;21583;-76
2022/10/19 11:59:22;;;;;;;2.27;2.02;;;18.00;99.90;;;;;;1958718;72;21035;-75
2022/10/19 12:01:55;;;;;;;2.15;1.47;;;18.20;99.90;;;;;;1952739;72;21459;-75
2022/10/19 12:04:41;;;;;;;5.70;2.00;;;18.30;99.90;;;;;;1969871;73;21200;-76
2022/10/19 12:07:29;;;;;;;2.95;2.10;;;18.30;99.90;;;;;;1958416;72;21078;-75
2022/10/19 12:10:35;;;;;;;8.00;2.42;;;18.20;99.90;;;;;;1944932;72;21507;-77
2022/10/19 12:13:03;;;;;;;5.97;2.20;;;18.20;99.90;;;;;;1949104;72;21068;-76
2022/10/19 12:15:37;;;;;;;1.80;1.60;;;18.00;99.90;;;;;;1971605;72;21067;-76
2022/10/19 12:18:24;;;;;;;2.27;1.72;;;18.20;99.90;;;;;;1945011;72;21028;-76
2022/10/19 12:20:52;;;;;;;4.17;2.10;;;18.20;99.90;;;;;;1951438;72;21143;-75
2022/10/19 12:23:37;;;;;;;3.17;2.20;;;18.40;99.90;;;;;;1971583;72;21467;-76
2022/10/19 12:26:07;;;;;;;3.20;2.20;;;18.50;99.90;;;;;;1952956;72;21081;-77
2022/10/19 12:28:37;;;;;;;8.40;2.00;;;18.60;99.90;;;;;;1954951;72;21128;-77
2022/10/19 12:31:04;;;;;;;3.50;2.00;;;18.40;99.90;;;;;;1964820;71;21210;-77
2022/10/19 12:33:47;;;;;;;2.42;1.87;;;18.40;99.90;;;;;;1968427;72;21464;-76
2022/10/19 12:36:46;;;;;;;11.30;1.70;;;18.50;99.90;;;;;;1962791;72;21094;-77
2022/10/19 12:39:25;;;;;;;1.95;1.60;;;18.30;99.90;;;;;;1963246;72;21103;-77
2022/10/19 12:42:09;;;;;;;5.97;2.12;;;18.40;99.90;;;;;;1951069;72;21062;-77
2022/10/19 12:44:57;;;;;;;2.10;1.72;;;18.20;99.90;;;;;;1970930;72;21095;-75
2022/10/19 12:47:30;;;;;;;2.22;1.80;;;18.10;99.90;;;;;;1953963;72;21136;-84
2022/10/19 12:49:57;;;;;;;1.90;1.72;;;18.20;99.90;;;;;;1964255;72;21108;-73
2022/10/19 12:52:43;;;;;;;3.40;1.67;;;18.30;99.90;;;;;;1963940;72;21504;-74
2022/10/19 12:55:12;;;;;;;2.47;1.95;;;18.20;99.90;;;;;;1963571;72;21039;-73
2022/10/19 12:57:39;;;;;;;5.00;1.50;;;18.20;99.90;;;;;;1964812;72;21083;-74
2022/10/19 13:00:21;;;;;;;3.10;1.60;;;18.30;99.90;;;;;;1945447;72;21505;-78